Time;durP1;ratioP1;P1;durP2;ratioP2;P2;SDS_P1;SDS_P2;PMS_P1;PMS_P2;Temp;Humidity;BMP_temperature;BMP_pressure;BME280_temperature;BME280_humidity;BME280_pressure;Samples;Min_cycle;Max_cycle;Signal;HPM_P1;HPM_P2
2021/03/09 00:00:01;;;;;;;338.30;144.53;;;;;;;-4.34;71.13;99510.74;123783;1102;64888;-77
2021/03/09 00:02:28;;;;;;;246.23;110.73;;;;;;;-4.31;70.58;99517.69;123815;1102;64908;-77
2021/03/09 00:04:54;;;;;;;247.50;115.53;;;;;;;-4.28;71.54;99513.34;123430;1102;64985;-78
2021/03/09 00:07:20;;;;;;;239.20;111.85;;;;;;;-4.28;70.88;99510.73;123793;1102;64908;-77
2021/03/09 00:09:47;;;;;;;241.40;119.23;;;;;;;-4.32;71.57;99514.19;123794;1102;65083;-77
2021/03/09 00:12:14;;;;;;;243.85;110.15;;;;;;;-4.35;70.68;99508.13;123776;1102;65298;-77
2021/03/09 00:14:40;;;;;;;245.20;113.37;;;;;;;-4.40;71.22;99515.91;123398;1102;64975;-77
2021/03/09 00:17:06;;;;;;;243.83;112.47;;;;;;;-4.45;70.81;99512.44;123459;1102;64985;-77
2021/03/09 00:19:33;;;;;;;244.10;114.47;;;;;;;-4.47;71.12;99517.66;123775;1101;64903;-77
2021/03/09 00:21:59;;;;;;;250.70;116.57;;;;;;;-4.48;71.56;99515.90;123786;1102;64851;-77
2021/03/09 00:24:25;;;;;;;247.83;112.13;;;;;;;-4.45;71.00;99512.44;123790;1102;64965;-79
2021/03/09 00:26:52;;;;;;;270.20;120.90;;;;;;;-4.46;71.25;99514.17;123398;1102;64984;-77
2021/03/09 00:29:18;;;;;;;268.20;122.20;;;;;;;-4.50;71.47;99508.95;123425;1102;64943;-77
2021/03/09 00:31:44;;;;;;;252.33;120.90;;;;;;;-4.54;70.90;99509.83;123392;1102;65020;-78
2021/03/09 00:34:11;;;;;;;256.80;121.43;;;;;;;-4.58;71.09;99502.88;123738;1102;65058;-78
2021/03/09 00:36:37;;;;;;;249.53;115.47;;;;;;;-4.62;71.30;99504.61;123776;1102;64892;-78
2021/03/09 00:39:04;;;;;;;269.03;121.90;;;;;;;-4.64;71.11;99515.00;123428;1102;64994;-78
2021/03/09 00:41:30;;;;;;;263.40;120.57;;;;;;;-4.62;71.83;99506.35;123793;1102;65304;-77
2021/03/09 00:43:57;;;;;;;259.00;121.37;;;;;;;-4.67;71.68;99506.33;123762;1102;64869;-78
2021/03/09 00:46:23;;;;;;;271.07;120.87;;;;;;;-4.70;71.31;99499.39;123398;1102;65351;-78
2021/03/09 00:48:49;;;;;;;257.83;117.53;;;;;;;-4.73;71.85;99501.12;123466;1105;65021;-78
2021/03/09 00:51:15;;;;;;;252.40;115.97;;;;;;;-4.82;71.84;99507.14;123402;1102;64911;-77
2021/03/09 00:53:42;;;;;;;229.27;106.20;;;;;;;-4.93;72.38;99511.45;123391;1102;64901;-78
2021/03/09 00:56:08;;;;;;;325.68;142.62;;;;;;;-5.04;72.12;99507.95;123441;1105;65081;-77
2021/03/09 00:58:34;;;;;;;324.67;141.67;;;;;;;-4.98;72.33;99511.42;123750;1102;64886;-77
2021/03/09 01:01:01;;;;;;;345.60;149.53;;;;;;;-4.97;72.29;99499.32;123811;1102;64896;-78
2021/03/09 01:03:27;;;;;;;340.83;145.47;;;;;;;-4.93;73.49;99503.65;123459;1102;65215;-78
2021/03/09 01:05:54;;;;;;;374.53;152.10;;;;;;;-4.89;72.87;99506.27;123404;1102;64912;-76
2021/03/09 01:08:20;;;;;;;358.97;157.13;;;;;;;-4.81;73.04;99493.30;123775;1102;64911;-77
2021/03/09 01:10:47;;;;;;;366.50;155.03;;;;;;;-4.75;73.54;99502.84;123752;1102;64905;-78
2021/03/09 01:13:13;;;;;;;377.87;158.93;;;;;;;-4.75;72.85;99490.70;123828;1102;64934;-76
2021/03/09 01:15:40;;;;;;;383.50;161.30;;;;;;;-4.78;73.34;99493.30;123801;1102;65387;-78
2021/03/09 01:18:06;;;;;;;378.40;158.40;;;;;;;-4.81;73.16;99492.44;123413;1102;64953;-77
2021/03/09 01:20:32;;;;;;;377.43;158.80;;;;;;;-4.77;73.48;99491.56;123794;1102;64912;-78
2021/03/09 01:22:59;;;;;;;363.55;157.35;;;;;;;-4.73;73.68;99488.13;123776;1102;65065;-79
2021/03/09 01:25:25;;;;;;;359.23;155.27;;;;;;;-4.76;73.84;99491.58;123435;1102;64961;-78
2021/03/09 01:27:51;;;;;;;359.33;155.07;;;;;;;-4.78;73.11;99488.11;123767;1102;64825;-78
2021/03/09 01:30:19;;;;;;;376.30;158.10;;;;;;;-4.75;73.37;99488.11;123796;1102;64908;-78
2021/03/09 01:32:46;;;;;;;380.90;158.77;;;;;;;-4.69;73.88;99488.11;123440;1102;65048;-77
2021/03/09 01:35:13;;;;;;;390.97;166.77;;;;;;;-4.71;72.91;99491.60;123791;1102;64857;-78
2021/03/09 01:37:40;;;;;;;356.50;153.60;;;;;;;-4.75;72.67;99480.31;123815;1102;64911;-78
2021/03/09 01:40:08;;;;;;;368.60;165.40;;;;;;;-4.81;72.96;99479.44;123427;1102;65266;-77
2021/03/09 01:42:35;;;;;;;378.10;160.80;;;;;;;-4.86;72.96;99472.48;123469;1102;64854;-77
2021/03/09 01:45:05;;;;;;;376.70;156.37;;;;;;;-4.90;72.92;99488.95;123413;1102;65033;-78
2021/03/09 01:47:33;;;;;;;349.63;155.30;;;;;;;-4.91;72.99;99481.13;123831;1101;64902;-77
2021/03/09 01:49:59;;;;;;;392.37;164.93;;;;;;;-4.93;73.63;99475.06;123792;1102;65266;-77
2021/03/09 01:52:27;;;;;;;377.10;159.13;;;;;;;-4.93;73.92;99473.32;123767;1102;65358;-78
2021/03/09 01:54:54;;;;;;;366.30;155.47;;;;;;;-4.94;74.10;99481.99;123768;1102;64894;-78
2021/03/09 01:57:20;;;;;;;370.10;158.77;;;;;;;-4.96;73.80;99477.65;123390;1102;65094;-77
2021/03/09 01:59:47;;;;;;;366.30;159.30;;;;;;;-5.02;73.88;99473.30;123409;1102;64940;-77
2021/03/09 02:02:14;;;;;;;378.93;165.27;;;;;;;-5.02;73.41;99478.50;123772;1102;64905;-78
2021/03/09 02:04:41;;;;;;;358.90;155.20;;;;;;;-5.07;73.22;99469.82;123784;1102;64907;-76
2021/03/09 02:07:07;;;;;;;361.37;155.07;;;;;;;-5.10;73.50;99477.61;123393;1102;64988;-77
2021/03/09 02:09:35;;;;;;;363.47;152.07;;;;;;;-5.13;73.58;99470.67;123762;1102;64994;-78
2021/03/09 02:12:14;;;;;;;359.67;149.23;;;;;;;-5.15;73.75;99476.72;123819;1102;64857;-76
2021/03/09 02:14:46;;;;;;;354.70;157.77;;;;;;;-5.19;73.33;99472.36;123819;1102;64975;-78
2021/03/09 02:17:42;;;;;;;382.60;161.73;;;;;;;-5.20;73.72;99473.23;123791;1102;64905;-78
2021/03/09 02:20:30;;;;;;;346.70;149.17;;;;;;;-5.27;73.98;99463.67;123779;1102;64889;-77
2021/03/09 02:23:11;;;;;;;376.70;160.13;;;;;;;-5.28;73.67;99470.60;123764;1102;64896;-77
2021/03/09 02:26:03;;;;;;;365.55;157.65;;;;;;;-5.28;73.87;99467.14;123819;1102;64841;-77
2021/03/09 02:28:45;;;;;;;350.77;154.30;;;;;;;-5.33;73.97;99467.98;123801;1102;64905;-77
2021/03/09 02:31:12;;;;;;;373.97;163.73;;;;;;;-5.40;74.46;99473.99;123763;1102;64959;-78
2021/03/09 02:33:40;;;;;;;357.10;157.13;;;;;;;-5.41;74.30;99472.27;123774;1101;64896;-77
2021/03/09 02:36:11;;;;;;;321.10;144.33;;;;;;;-5.39;74.94;99477.48;123433;1102;64940;-77
2021/03/09 02:38:56;;;;;;;331.90;146.50;;;;;;;-5.48;74.72;99478.28;123825;1101;65394;-78
2021/03/09 02:41:25;;;;;;;336.27;150.07;;;;;;;-5.53;74.28;99480.88;123805;1102;65303;-77
2021/03/09 02:43:56;;;;;;;331.57;149.53;;;;;;;-5.46;74.50;99479.17;123842;1101;64936;-77
2021/03/09 02:46:26;;;;;;;327.90;150.63;;;;;;;-5.41;74.45;99474.87;123402;1102;64886;-76
2021/03/09 02:48:54;;;;;;;332.57;145.87;;;;;;;-5.39;75.11;99475.75;123812;1102;64876;-79
2021/03/09 02:51:26;;;;;;;311.17;144.03;;;;;;;-5.36;74.65;99477.50;123817;1101;64924;-77
2021/03/09 02:53:56;;;;;;;324.73;146.77;;;;;;;-5.38;74.24;99469.69;123777;1102;64879;-78
2021/03/09 02:56:24;;;;;;;315.07;143.53;;;;;;;-5.42;74.17;99473.14;123779;1102;64889;-79
2021/03/09 02:58:55;;;;;;;335.95;150.50;;;;;;;-5.48;74.36;99473.09;123881;1102;64981;-79
2021/03/09 03:01:25;;;;;;;322.97;148.90;;;;;;;-5.52;74.63;99472.22;123850;1102;65058;-79
2021/03/09 03:03:54;;;;;;;338.27;149.47;;;;;;;-5.53;74.23;99473.09;123899;1102;64909;-81
2021/03/09 03:06:21;;;;;;;326.83;150.47;;;;;;;-5.53;73.93;99472.20;123794;1102;65237;-78
2021/03/09 03:08:49;;;;;;;333.40;145.50;;;;;;;-5.56;74.39;99483.43;123401;1102;65302;-78
2021/03/09 03:11:17;;;;;;;330.30;147.20;;;;;;;-5.57;73.96;99476.52;123795;1102;65339;-78
2021/03/09 03:13:44;;;;;;;320.23;143.07;;;;;;;-5.56;73.80;99480.84;123814;1102;65001;-78
2021/03/09 03:16:12;;;;;;;330.13;148.07;;;;;;;-5.60;73.83;99486.03;123413;1102;64933;-78
2021/03/09 03:18:43;;;;;;;341.67;148.00;;;;;;;-5.67;74.56;99492.89;123793;1102;64863;-78
2021/03/09 03:21:11;;;;;;;338.13;147.53;;;;;;;-5.72;74.28;99488.53;123818;1101;64838;-78
2021/03/09 03:23:39;;;;;;;330.97;148.13;;;;;;;-5.68;74.65;99488.58;123411;1103;65374;-78
2021/03/09 03:26:07;;;;;;;307.53;142.03;;;;;;;-5.65;74.09;99482.53;123790;1102;65067;-78
2021/03/09 03:28:37;;;;;;;324.67;145.53;;;;;;;-5.65;74.96;99470.41;123775;1101;64905;-77
2021/03/09 03:31:04;;;;;;;326.55;144.68;;;;;;;-5.63;74.85;99476.49;123797;1102;64905;-78
2021/03/09 03:33:31;;;;;;;319.07;142.03;;;;;;;-5.67;74.60;99481.65;123809;1102;64930;-79
2021/03/09 03:36:05;;;;;;;297.27;137.73;;;;;;;-5.68;74.63;99474.73;123776;1102;64937;-78
2021/03/09 03:38:38;;;;;;;304.83;139.53;;;;;;;-5.68;73.99;99480.78;123769;1102;64934;-77
2021/03/09 03:41:06;;;;;;;302.03;134.97;;;;;;;-5.68;74.13;99482.52;123805;1102;64985;-78
2021/03/09 03:43:33;;;;;;;287.03;131.70;;;;;;;-5.66;74.19;99488.56;123772;1102;64832;-78
2021/03/09 03:46:00;;;;;;;331.95;142.50;;;;;;;-5.66;74.88;99486.86;123802;1101;64905;-77
2021/03/09 03:48:27;;;;;;;322.07;144.67;;;;;;;-5.65;74.88;99491.19;123432;1102;64979;-77
2021/03/09 03:50:54;;;;;;;315.50;142.35;;;;;;;-5.60;74.82;99493.81;123456;1102;65083;-77
2021/03/09 03:53:23;;;;;;;297.10;139.13;;;;;;;-5.54;74.62;99489.52;123794;1102;64988;-77
2021/03/09 03:56:07;;;;;;;287.33;132.63;;;;;;;-5.48;75.11;99480.88;123790;1099;64870;-77
2021/03/09 03:58:44;;;;;;;291.60;133.30;;;;;;;-5.34;74.36;99478.38;123798;1102;64886;-79
2021/03/09 04:01:14;;;;;;;290.70;139.63;;;;;;;-5.35;74.61;99487.88;123787;1102;64985;-78
2021/03/09 04:03:41;;;;;;;294.43;135.40;;;;;;;-5.35;74.60;99482.67;123822;1102;64885;-78
2021/03/09 04:06:08;;;;;;;308.97;137.33;;;;;;;-5.33;74.24;99487.89;123743;1102;64895;-77
2021/03/09 04:08:38;;;;;;;289.90;134.67;;;;;;;-5.33;74.79;99483.56;123806;1102;64912;-78
2021/03/09 04:11:06;;;;;;;277.43;128.80;;;;;;;-5.37;73.87;99487.02;123822;1102;64987;-78
2021/03/09 04:13:36;;;;;;;289.40;133.70;;;;;;;-5.36;73.88;99493.08;123777;1102;64885;-78
2021/03/09 04:16:03;;;;;;;;;;;;;;;-5.31;74.29;99492.23;123840;1102;65271;-78
2021/03/09 04:18:31;;;;;;;278.67;122.03;;;;;;;-5.36;74.09;99493.94;123791;1102;64811;-78
2021/03/09 04:20:59;;;;;;;283.35;128.75;;;;;;;-5.40;74.40;99497.37;123850;1102;64959;-78
2021/03/09 04:23:27;;;;;;;262.00;129.50;;;;;;;-5.43;73.61;99499.95;123756;1102;64888;-78
2021/03/09 04:25:54;;;;;;;267.77;122.80;;;;;;;-5.43;74.66;99497.36;123447;1102;65406;-78
2021/03/09 04:28:21;;;;;;;275.50;128.70;;;;;;;-5.35;74.87;99492.20;123751;1102;64905;-80
2021/03/09 04:30:49;;;;;;;281.50;128.87;;;;;;;-5.33;74.23;99493.95;123823;1101;64997;-78
2021/03/09 04:33:15;;;;;;;278.77;127.70;;;;;;;-5.31;74.20;99480.98;123790;1102;64885;-79
2021/03/09 04:35:42;;;;;;;258.20;123.80;;;;;;;-5.29;74.60;99494.86;123833;1102;64898;-78
2021/03/09 04:38:10;;;;;;;261.90;124.23;;;;;;;-5.32;74.53;99489.63;123739;1102;64900;-78
2021/03/09 04:40:38;;;;;;;252.63;118.83;;;;;;;-5.27;74.76;99489.65;123739;1102;65020;-78
2021/03/09 04:43:04;;;;;;;257.87;124.30;;;;;;;-5.28;74.03;99486.19;123406;1102;64973;-78
2021/03/09 04:45:32;;;;;;;254.07;118.17;;;;;;;-5.26;73.95;99483.61;123775;1102;64905;-78
2021/03/09 04:48:00;;;;;;;268.37;121.07;;;;;;;-5.23;73.80;99494.88;123456;1102;65071;-77
2021/03/09 04:50:28;;;;;;;274.67;120.13;;;;;;;-5.25;74.27;99483.60;123869;1102;64930;-77
2021/03/09 04:52:56;;;;;;;244.20;118.03;;;;;;;-5.26;74.38;99487.07;123821;1102;65266;-78
2021/03/09 04:55:25;;;;;;;256.17;120.93;;;;;;;-5.18;74.62;99482.77;123450;1102;64997;-78
2021/03/09 04:57:51;;;;;;;244.13;113.08;;;;;;;-5.16;74.73;99486.25;123466;1102;64888;-78
2021/03/09 05:00:21;;;;;;;242.27;112.63;;;;;;;-5.15;73.95;99482.78;123392;1102;64908;-78
2021/03/09 05:02:49;;;;;;;;;;;;;;;-5.15;74.42;99485.38;123816;1102;65393;-78
2021/03/09 05:05:17;;;;;;;236.27;115.93;;;;;;;-5.15;74.61;99492.31;123775;1102;65051;-78
2021/03/09 05:07:45;;;;;;;233.17;110.80;;;;;;;-5.03;74.68;99486.28;123835;1102;65010;-78
2021/03/09 05:10:13;;;;;;;202.83;101.30;;;;;;;-4.93;75.36;99488.05;123820;1101;64940;-78
2021/03/09 05:12:48;;;;;;;197.20;98.70;;;;;;;-4.89;74.37;99485.48;123819;1101;64894;-77
2021/03/09 05:15:15;;;;;;;200.77;99.70;;;;;;;-4.85;74.83;99486.34;123794;1102;64882;-77
2021/03/09 05:17:42;;;;;;;214.67;104.43;;;;;;;-4.78;75.32;99490.70;123752;1101;64902;-77
2021/03/09 05:20:14;;;;;;;214.77;106.90;;;;;;;-4.76;75.19;99490.72;123771;1101;64931;-78
2021/03/09 05:22:41;;;;;;;201.90;99.90;;;;;;;-4.79;75.09;99501.09;123779;1102;65362;-78
2021/03/09 05:25:11;;;;;;;189.73;96.83;;;;;;;-4.81;75.13;99506.30;123788;1102;64933;-78
2021/03/09 05:27:40;;;;;;;189.37;99.77;;;;;;;-4.85;75.36;99505.40;123784;1102;64885;-77
2021/03/09 05:30:08;;;;;;;189.30;96.63;;;;;;;-4.77;74.82;99497.63;123767;1102;64985;-77
2021/03/09 05:32:34;;;;;;;195.00;102.03;;;;;;;-4.65;74.85;99495.07;123420;1102;64926;-78
2021/03/09 05:35:01;;;;;;;198.63;96.90;;;;;;;-4.58;75.63;99503.77;123447;1102;64892;-78
2021/03/09 05:37:27;;;;;;;192.60;101.00;;;;;;;-4.52;75.48;99505.51;123798;1101;64905;-78
2021/03/09 05:39:53;;;;;;;190.47;99.43;;;;;;;-4.46;75.32;99508.11;123422;1102;64934;-77
2021/03/09 05:42:20;;;;;;;192.13;100.22;;;;;;;-4.42;74.62;99510.73;123760;1102;64988;-77
2021/03/09 05:44:47;;;;;;;189.77;98.23;;;;;;;-4.33;75.34;99501.20;123817;1102;64962;-78
2021/03/09 05:47:14;;;;;;;191.97;99.43;;;;;;;-4.33;75.43;99509.00;123756;1102;64984;-78
2021/03/09 05:49:40;;;;;;;184.55;98.65;;;;;;;-4.31;75.44;99505.53;123411;1102;65023;-78
2021/03/09 05:52:09;;;;;;;185.90;99.17;;;;;;;-4.24;74.70;99509.00;123770;1102;64985;-78
2021/03/09 05:54:35;;;;;;;176.83;99.23;;;;;;;-4.21;75.44;99506.42;123811;1102;64892;-78
2021/03/09 05:57:02;;;;;;;189.17;98.13;;;;;;;-4.18;74.56;99503.82;123825;1102;64949;-78
2021/03/09 05:59:28;;;;;;;197.95;101.00;;;;;;;-4.17;74.71;99504.68;123834;1102;64962;-79
2021/03/09 06:01:54;;;;;;;192.83;100.70;;;;;;;-4.12;75.34;99515.96;123421;1102;64928;-78
2021/03/09 06:04:21;;;;;;;186.70;103.13;;;;;;;-4.06;74.73;99508.14;123442;1102;64908;-77
2021/03/09 06:06:48;;;;;;;188.97;103.35;;;;;;;-3.93;75.01;99507.27;123768;1102;65039;-77
2021/03/09 06:09:33;;;;;;;195.67;106.80;;;;;;;-3.87;74.87;99512.50;123767;1102;64937;-77
2021/03/09 06:12:21;;;;;;;202.53;109.70;;;;;;;-3.79;74.66;99505.55;123791;1102;64907;-77
2021/03/09 06:15:00;;;;;;;190.30;109.13;;;;;;;-3.62;74.71;99505.52;123797;1102;64857;-78
2021/03/09 06:17:26;;;;;;;197.20;110.30;;;;;;;-3.51;74.60;99510.70;123773;1101;64889;-78
2021/03/09 06:19:53;;;;;;;234.17;120.90;;;;;;;-3.44;75.23;99522.86;123733;1101;65390;-78
2021/03/09 06:22:37;;;;;;;223.70;122.55;;;;;;;-3.31;74.71;99508.06;123450;1102;64923;-78
2021/03/09 06:25:05;;;;;;;210.00;114.47;;;;;;;-3.28;75.30;99508.05;123783;1101;65343;-79
2021/03/09 06:27:33;;;;;;;208.50;116.30;;;;;;;-3.27;74.88;99511.52;123767;1102;64882;-79
2021/03/09 06:30:00;;;;;;;193.97;113.40;;;;;;;-3.17;75.37;99516.70;123476;1102;64991;-77
2021/03/09 06:32:37;;;;;;;204.00;111.97;;;;;;;-2.96;74.98;99507.06;123723;1102;65236;-78
2021/03/09 06:35:04;;;;;;;186.87;106.13;;;;;;;-2.83;74.58;99507.89;123411;1102;64924;-79
2021/03/09 06:37:30;;;;;;;150.33;88.33;;;;;;;-2.75;75.29;99509.58;123761;1102;65008;-77
2021/03/09 06:39:58;;;;;;;124.07;70.67;;;;;;;-2.66;74.47;99519.09;123422;1102;64867;-78
2021/03/09 06:42:30;;;;;;;105.20;62.83;;;;;;;-2.63;74.90;99519.09;123766;1102;64885;-79
2021/03/09 06:45:00;;;;;;;103.15;60.25;;;;;;;-2.59;74.29;99520.80;123730;1102;65072;-77
2021/03/09 06:47:40;;;;;;;106.37;59.93;;;;;;;-2.63;73.94;99524.31;123434;1102;64971;-78
2021/03/09 06:50:10;;;;;;;107.43;58.67;;;;;;;-2.59;74.79;99517.33;123777;1102;64937;-79
2021/03/09 06:52:37;;;;;;;107.77;57.23;;;;;;;-2.49;74.74;99527.70;123427;1102;64963;-78
2021/03/09 06:55:05;;;;;;;102.67;56.93;;;;;;;-2.35;74.51;99526.75;123766;1102;64873;-78
2021/03/09 06:57:32;;;;;;;100.53;54.77;;;;;;;-2.24;74.41;99535.37;123806;1102;64909;-78
2021/03/09 06:59:58;;;;;;;96.77;56.33;;;;;;;-2.16;73.41;99524.88;123388;1102;65396;-78
2021/03/09 07:02:26;;;;;;;94.13;52.70;;;;;;;-2.05;73.26;99529.16;123382;1105;65304;-78
2021/03/09 07:05:02;;;;;;;101.30;56.50;;;;;;;-1.93;73.49;99533.41;123845;1102;64886;-78
2021/03/09 07:07:30;;;;;;;83.87;49.30;;;;;;;-1.72;73.32;99537.59;123316;1102;64905;-78
2021/03/09 07:10:02;;;;;;;83.57;48.97;;;;;;;-1.61;73.44;99537.50;123735;1102;64909;-77
2021/03/09 07:12:29;;;;;;;81.10;46.63;;;;;;;-1.55;72.37;99534.86;123427;1102;65004;-78
2021/03/09 07:14:56;;;;;;;79.95;45.80;;;;;;;-1.52;72.76;99537.44;123758;1102;64885;-78
2021/03/09 07:17:28;;;;;;;80.30;47.40;;;;;;;-1.46;72.20;99536.50;123805;1102;64991;-79
2021/03/09 07:19:57;;;;;;;75.00;45.90;;;;;;;-1.40;72.11;99537.30;123805;1102;64923;-79
2021/03/09 07:22:25;;;;;;;80.73;49.40;;;;;;;-1.29;72.58;99536.33;123414;1105;65141;-78
2021/03/09 07:25:08;;;;;;;80.37;47.47;;;;;;;-1.18;71.74;99539.72;123421;1102;64918;-78
2021/03/09 07:27:39;;;;;;;75.00;45.73;;;;;;;-1.06;71.81;99539.56;123811;1102;64911;-78
2021/03/09 07:30:11;;;;;;;75.17;42.27;;;;;;;-1.01;71.57;99542.13;123502;1102;64989;-78
2021/03/09 07:32:39;;;;;;;75.30;44.50;;;;;;;-0.92;71.16;99544.66;123853;1102;64909;-79
2021/03/09 07:35:09;;;;;;;79.80;45.93;;;;;;;-0.82;71.42;99548.88;123474;1102;64937;-77
2021/03/09 07:37:39;;;;;;;76.60;44.30;;;;;;;-0.71;71.21;99544.40;123819;1101;64888;-79
2021/03/09 07:40:12;;;;;;;79.87;45.13;;;;;;;-0.60;71.09;99540.78;123808;1102;65221;-78
2021/03/09 07:42:39;;;;;;;77.87;45.47;;;;;;;-0.50;70.86;99545.88;123403;1102;64962;-77
2021/03/09 07:45:11;;;;;;;80.35;47.50;;;;;;;-0.44;69.86;99547.54;123820;1102;64899;-79
2021/03/09 07:48:23;;;;;;;76.13;46.10;;;;;;;-0.39;70.25;99540.48;123770;1102;65799;-78
2021/03/09 07:50:50;;;;;;;75.10;46.10;;;;;;;-0.25;69.98;99535.05;123216;1105;64963;-77
2021/03/09 07:53:18;;;;;;;77.03;46.30;;;;;;;-0.17;69.34;99533.18;123757;1102;64975;-79
2021/03/09 07:56:09;;;;;;;76.40;46.27;;;;;;;-0.13;69.76;99531.37;123431;1102;65313;-78
2021/03/09 07:58:35;;;;;;;79.03;48.43;;;;;;;-0.10;69.08;99526.11;123387;1102;64876;-78
2021/03/09 08:01:05;;;;;;;81.60;49.90;;;;;;;-0.03;69.51;99525.10;123776;1101;64947;-79
2021/03/09 08:03:35;;;;;;;79.30;48.55;;;;;;;0.02;68.16;99525.90;123488;1102;64974;-79
2021/03/09 08:06:05;;;;;;;93.10;50.23;;;;;;;0.01;68.25;99523.33;123744;1102;64907;-78
2021/03/09 08:08:51;;;;;;;88.55;52.30;;;;;;;0.02;67.76;99523.28;123417;1102;64905;-79
2021/03/09 08:11:22;;;;;;;92.07;53.03;;;;;;;0.13;67.73;99533.59;123747;1102;64900;-78
2021/03/09 08:14:04;;;;;;;86.97;51.60;;;;;;;0.17;66.89;99525.66;123382;1102;65351;-78
2021/03/09 08:16:38;;;;;;;92.83;54.97;;;;;;;0.14;66.82;99519.61;123776;1101;64950;-78
2021/03/09 08:19:09;;;;;;;84.17;50.57;;;;;;;0.20;67.28;99524.75;123385;1102;64860;-77
2021/03/09 08:21:48;;;;;;;91.40;54.87;;;;;;;0.25;67.49;99520.30;123806;1102;64982;-78
2021/03/09 08:24:15;;;;;;;91.67;54.50;;;;;;;0.33;66.66;99518.41;123395;1102;64991;-79
2021/03/09 08:26:43;;;;;;;89.47;51.30;;;;;;;0.41;66.75;99513.03;123785;1102;64959;-77
2021/03/09 08:29:27;;;;;;;82.00;50.73;;;;;;;0.48;66.95;99514.66;123795;1102;64982;-79
2021/03/09 08:32:30;;;;;;;95.13;53.10;;;;;;;0.65;66.62;99506.48;123776;1102;64902;-78
2021/03/09 08:35:29;;;;;;;89.73;52.30;;;;;;;0.84;66.66;99513.13;123322;1105;64863;-78
2021/03/09 08:38:11;;;;;;;79.10;47.73;;;;;;;1.04;66.57;99507.47;123518;1102;64946;-78
2021/03/09 08:40:58;;;;;;;84.47;46.97;;;;;;;1.21;66.42;99511.51;123763;1102;64984;-78
2021/03/09 08:43:24;;;;;;;82.50;47.13;;;;;;;1.33;65.81;99506.02;123777;1102;65343;-78
2021/03/09 08:45:53;;;;;;;76.57;46.63;;;;;;;1.35;65.59;99498.11;123733;1102;64854;-78
2021/03/09 08:48:44;;;;;;;74.60;45.10;;;;;;;1.39;65.31;99497.13;123763;1102;64984;-78
2021/03/09 08:51:46;;;;;;;80.73;47.83;;;;;;;1.45;65.22;99495.25;123746;1102;64920;-79
2021/03/09 08:54:24;;;;;;;77.90;44.90;;;;;;;1.56;65.63;99492.39;123350;1105;65123;-78
2021/03/09 08:56:50;;;;;;;75.63;45.13;;;;;;;1.60;64.97;99488.77;123660;1102;64918;-78
2021/03/09 08:59:25;;;;;;;73.77;43.87;;;;;;;1.72;64.51;99490.28;123748;1102;64934;-78
2021/03/09 09:01:52;;;;;;;71.93;43.93;;;;;;;1.81;64.24;99486.56;123820;1102;64894;-78
2021/03/09 09:04:19;;;;;;;67.80;42.30;;;;;;;1.83;63.86;99482.14;123396;1102;65020;-78
2021/03/09 09:06:47;;;;;;;72.53;42.57;;;;;;;1.80;63.36;99490.95;123730;1102;64883;-79
2021/03/09 09:09:34;;;;;;;67.77;40.77;;;;;;;1.81;63.61;99481.30;123793;1102;64888;-79
2021/03/09 09:12:29;;;;;;;63.73;38.17;;;;;;;1.95;63.77;99479.23;123729;1102;64885;-79
2021/03/09 09:15:09;;;;;;;66.27;38.17;;;;;;;2.09;64.33;99487.62;123774;1101;64901;-78
2021/03/09 09:17:38;;;;;;;64.90;38.53;;;;;;;2.29;63.52;99475.73;123454;1102;64850;-78
2021/03/09 09:20:19;;;;;;;54.13;33.17;;;;;;;2.45;63.22;99481.47;123781;1102;64896;-78
2021/03/09 09:22:47;;;;;;;53.17;33.40;;;;;;;2.62;62.57;99474.86;123422;1102;64918;-78
2021/03/09 09:25:15;;;;;;;50.50;31.23;;;;;;;2.71;61.99;99471.10;123843;1102;64825;-79
2021/03/09 09:27:46;;;;;;;53.00;33.53;;;;;;;2.78;62.16;99469.19;123819;1102;64895;-79
2021/03/09 09:30:38;;;;;;;51.93;31.53;;;;;;;2.94;61.27;99470.47;123808;1102;64895;-78
2021/03/09 09:33:06;;;;;;;42.87;27.70;;;;;;;3.19;61.39;99469.79;123760;1102;65058;-78
2021/03/09 09:35:33;;;;;;;36.47;23.40;;;;;;;3.45;61.16;99461.97;123787;1102;64905;-78
2021/03/09 09:38:05;;;;;;;44.07;26.63;;;;;;;3.70;60.15;99469.96;123398;1102;64884;-78
2021/03/09 09:40:35;;;;;;;43.10;27.67;;;;;;;3.98;58.87;99462.94;123446;1102;65045;-78
2021/03/09 09:43:06;;;;;;;49.43;29.00;;;;;;;4.22;59.76;99453.38;123827;1101;64879;-78
2021/03/09 09:45:39;;;;;;;41.60;25.47;;;;;;;4.49;58.40;99452.42;123790;1102;65053;-78
2021/03/09 09:48:09;;;;;;;35.40;22.80;;;;;;;4.72;57.96;99458.68;123790;1102;65058;-78
2021/03/09 09:50:36;;;;;;;44.18;26.57;;;;;;;4.80;56.40;99446.92;123804;1102;65234;-78
2021/03/09 09:53:03;;;;;;;31.87;19.93;;;;;;;4.67;55.89;99456.20;123416;1102;64911;-77
2021/03/09 09:55:31;;;;;;;16.47;9.83;;;;;;;4.60;53.39;99444.13;123452;1102;65022;-78
2021/03/09 09:57:59;;;;;;;14.87;10.10;;;;;;;4.37;53.10;99453.72;123819;1102;65029;-82
2021/03/09 10:00:35;;;;;;;20.73;13.27;;;;;;;4.31;52.62;99447.78;123922;1102;64936;-81
2021/03/09 10:03:06;;;;;;;17.00;11.20;;;;;;;4.26;51.22;99447.92;123541;1102;65010;-75
2021/03/09 10:05:32;;;;;;;6.53;4.63;;;;;;;4.13;52.08;99444.86;123788;1102;64891;-74
2021/03/09 10:07:59;;;;;;;13.20;8.60;;;;;;;4.12;51.81;99447.54;123836;1102;64864;-76
2021/03/09 10:10:26;;;;;;;20.60;13.20;;;;;;;4.20;52.54;99442.02;123784;1102;64959;-76
2021/03/09 10:12:52;;;;;;;13.83;9.37;;;;;;;4.27;51.71;99443.53;123818;1102;64896;-75
2021/03/09 10:15:19;;;;;;;11.27;6.43;;;;;;;4.33;51.57;99436.25;123796;1102;64911;-76
2021/03/09 10:17:46;;;;;;;6.80;5.23;;;;;;;4.66;51.55;99440.40;123829;1102;65284;-78
2021/03/09 10:20:24;;;;;;;8.97;4.47;;;;;;;4.94;51.01;99430.56;123742;1102;64972;-77
2021/03/09 10:23:01;;;;;;;8.57;6.03;;;;;;;5.27;50.57;99427.59;123838;1102;65042;-75
2021/03/09 10:25:28;;;;;;;9.80;6.17;;;;;;;5.59;49.84;99433.40;123794;1102;65039;-76
2021/03/09 10:28:02;;;;;;;3.93;2.20;;;;;;;5.76;49.77;99419.49;123810;1102;65393;-76
2021/03/09 10:30:39;;;;;;;6.67;3.70;;;;;;;5.89;48.03;99416.28;123779;1102;64908;-76
2021/03/09 10:33:11;;;;;;;7.90;5.30;;;;;;;5.93;48.64;99422.33;123788;1102;64882;-76
2021/03/09 10:36:07;;;;;;;11.00;6.43;;;;;;;6.01;47.98;99414.11;123803;1102;64905;-76
2021/03/09 10:38:34;;;;;;;12.37;7.77;;;;;;;5.99;47.93;99414.16;123794;1102;64936;-76
2021/03/09 10:41:01;;;;;;;14.87;9.60;;;;;;;5.98;47.69;99407.16;123782;1102;65011;-75
2021/03/09 10:43:40;;;;;;;13.17;9.47;;;;;;;5.94;47.78;99409.05;123757;1102;64986;-76
2021/03/09 10:46:07;;;;;;;12.73;6.90;;;;;;;5.87;47.16;99396.10;123847;1102;64902;-75
2021/03/09 10:48:33;;;;;;;8.67;6.10;;;;;;;5.89;47.84;99399.55;123786;1102;64982;-75
2021/03/09 10:51:00;;;;;;;11.20;7.90;;;;;;;5.96;47.41;99397.56;123805;1102;64998;-76
2021/03/09 10:53:26;;;;;;;10.50;7.53;;;;;;;6.01;47.39;99408.81;123790;1102;64928;-76
2021/03/09 10:55:53;;;;;;;14.23;10.58;;;;;;;6.04;46.74;99401.59;123809;1102;64837;-76
2021/03/09 10:58:19;;;;;;;11.93;8.00;;;;;;;6.04;46.20;99398.95;123718;1102;65027;-75
2021/03/09 11:00:45;;;;;;;12.80;8.40;;;;;;;6.09;46.05;99402.27;123411;1102;64991;-75
2021/03/09 11:03:12;;;;;;;14.53;9.27;;;;;;;6.18;46.06;99402.80;123801;1101;64896;-76
2021/03/09 11:05:39;;;;;;;15.33;10.53;;;;;;;6.23;45.19;99398.17;123716;1102;64888;-76
2021/03/09 11:08:05;;;;;;;16.80;11.27;;;;;;;6.14;44.57;99389.70;123828;1102;64917;-76
2021/03/09 11:10:32;;;;;;;14.17;10.67;;;;;;;6.10;44.47;99393.39;123786;1102;64917;-76
2021/03/09 11:12:58;;;;;;;18.07;12.60;;;;;;;6.05;44.52;99384.78;123742;1102;64978;-75
2021/03/09 11:15:25;;;;;;;14.57;11.77;;;;;;;6.17;45.19;99386.07;123786;1102;64978;-76
2021/03/09 11:17:51;;;;;;;24.93;22.37;;;;;;;6.40;45.23;99379.80;123767;1102;64886;-75